Time,TemperatureF,DewpointF,PressureIn,WindDirection,WindDirectionDegrees,WindSpeedMPH,WindSpeedGustMPH,Humidity,HourlyPrecipIn,Conditions,Clouds,dailyrainin,SoftwareType,DateUTC
2013-01-21 00:02:00,45.0,38.0,30.10,South,191,0.0,0.0,76,0.00,,,0.00,,2013-01-21 06:02:00,
2013-01-21 00:12:00,45.0,38.0,30.10,South,191,0.0,0.0,76,0.00,,,0.00,,2013-01-21 06:12:00,
2013-01-21 00:23:00,45.0,38.0,30.11,South,191,0.0,0.0,76,0.00,,,0.00,,2013-01-21 06:23:00,
2013-01-21 00:33:00,45.0,38.0,30.11,South,191,1.0,2.0,77,0.00,,,0.00,,2013-01-21 06:33:00,
2013-01-21 00:43:00,45.0,38.0,30.11,South,191,1.0,2.0,77,0.00,,,0.00,,2013-01-21 06:43:00,
2013-01-21 00:53:00,44.0,38.0,30.11,South,191,0.0,0.0,78,0.00,,,0.00,,2013-01-21 06:53:00,
2013-01-21 01:03:00,44.0,38.0,30.11,South,191,0.0,0.0,79,0.00,,,0.00,,2013-01-21 07:03:00,
2013-01-21 01:12:00,44.0,38.0,30.11,South,191,0.0,0.0,79,0.00,,,0.00,,2013-01-21 07:12:00,
2013-01-21 01:22:00,44.0,38.0,30.11,South,191,0.0,0.0,79,0.00,,,0.00,,2013-01-21 07:22:00,
2013-01-21 01:33:00,44.0,38.0,30.11,South,191,0.0,0.0,79,0.00,,,0.00,,2013-01-21 07:33:00,
2013-01-21 01:42:00,44.0,38.0,30.11,South,191,0.0,0.0,79,0.00,,,0.00,,2013-01-21 07:42:00,
2013-01-21 01:52:00,44.0,38.0,30.12,South,191,0.0,0.0,80,0.00,,,0.00,,2013-01-21 07:52:00,
2013-01-21 02:03:00,43.0,37.0,30.12,South,191,0.0,0.0,80,0.00,,,0.00,,2013-01-21 08:03:00,
2013-01-21 02:22:00,43.0,37.0,30.12,South,191,0.0,0.0,80,0.00,,,0.00,,2013-01-21 08:22:00,
2013-01-21 02:32:00,43.0,37.0,30.12,South,191,0.0,0.0,80,0.00,,,0.00,,2013-01-21 08:32:00,
2013-01-21 02:42:00,43.0,37.0,30.12,South,191,0.0,0.0,80,0.00,,,0.00,,2013-01-21 08:42:00,
2013-01-21 02:53:00,43.0,37.0,30.12,South,191,0.0,0.0,80,0.00,,,0.00,,2013-01-21 08:53:00,
2013-01-21 03:02:00,42.0,37.0,30.14,South,191,0.0,1.0,82,0.00,,,0.00,,2013-01-21 09:02:00,
2013-01-21 03:12:00,42.0,37.0,30.14,South,191,0.0,1.0,82,0.00,,,0.00,,2013-01-21 09:12:00,
2013-01-21 03:22:00,43.0,38.0,30.14,South,191,0.0,0.0,81,0.00,,,0.00,,2013-01-21 09:22:00,
2013-01-21 03:33:00,43.0,38.0,30.14,South,191,0.0,2.0,81,0.00,,,0.00,,2013-01-21 09:33:00,
2013-01-21 03:42:00,43.0,38.0,30.14,South,191,0.0,2.0,81,0.00,,,0.00,,2013-01-21 09:42:00,
2013-01-21 03:53:00,42.0,37.0,30.14,South,191,0.0,0.0,81,0.00,,,0.00,,2013-01-21 09:53:00,
2013-01-21 04:02:00,42.0,37.0,30.14,South,191,2.0,3.0,82,0.00,,,0.00,,2013-01-21 10:02:00,
2013-01-21 04:12:00,42.0,37.0,30.14,South,191,2.0,3.0,82,0.00,,,0.00,,2013-01-21 10:12:00,
2013-01-21 04:22:00,42.0,37.0,30.14,WSW,237,6.0,8.0,82,0.00,,,0.00,,2013-01-21 10:22:00,
2013-01-21 04:32:00,43.0,38.0,30.15,West,275,6.0,8.0,83,0.00,,,0.00,,2013-01-21 10:32:00,
2013-01-21 04:43:00,43.0,38.0,30.15,West,275,6.0,8.0,83,0.00,,,0.00,,2013-01-21 10:43:00,
2013-01-21 04:53:00,44.0,39.0,30.16,NW,306,7.0,12.0,84,0.00,,,0.00,,2013-01-21 10:53:00,
2013-01-21 05:02:00,45.0,40.0,30.16,NW,318,7.0,9.0,83,0.00,,,0.00,,2013-01-21 11:02:00,
2013-01-21 05:13:00,45.0,40.0,30.16,NW,318,7.0,9.0,83,0.00,,,0.00,,2013-01-21 11:13:00,
2013-01-21 05:23:00,45.0,40.0,30.16,NNW,341,9.0,14.0,83,0.00,,,0.00,,2013-01-21 11:23:00,
2013-01-21 05:32:00,45.0,40.0,30.16,NNW,345,7.0,12.0,83,0.00,,,0.00,,2013-01-21 11:32:00,
2013-01-21 05:42:00,45.0,40.0,30.16,NNW,345,7.0,12.0,83,0.00,,,0.00,,2013-01-21 11:42:00,
2013-01-21 05:53:00,44.0,39.0,30.17,North,0,4.0,6.0,84,0.00,,,0.00,,2013-01-21 11:53:00,
2013-01-21 06:02:00,44.0,38.0,30.18,North,358,7.0,12.0,79,0.00,,,0.00,,2013-01-21 12:02:00,
2013-01-21 06:12:00,44.0,38.0,30.18,North,358,7.0,12.0,79,0.00,,,0.00,,2013-01-21 12:12:00,
2013-01-21 06:22:00,43.0,36.0,30.19,North,5,5.0,10.0,76,0.00,,,0.00,,2013-01-21 12:22:00,
2013-01-21 06:32:00,43.0,36.0,30.20,North,5,3.0,6.0,75,0.00,,,0.00,,2013-01-21 12:32:00,
2013-01-21 06:42:00,43.0,36.0,30.20,North,5,3.0,6.0,75,0.00,,,0.00,,2013-01-21 12:42:00,
2013-01-21 06:53:00,42.0,35.0,30.21,North,5,2.0,3.0,76,0.00,,,0.00,,2013-01-21 12:53:00,
2013-01-21 07:02:00,41.0,35.0,30.21,North,5,2.0,5.0,79,0.00,,,0.00,,2013-01-21 13:02:00,
2013-01-21 07:12:00,41.0,35.0,30.21,North,5,2.0,5.0,79,0.00,,,0.00,,2013-01-21 13:12:00,
2013-01-21 07:23:00,41.0,33.0,30.22,NNE,14,7.0,12.0,73,0.00,,,0.00,,2013-01-21 13:23:00,
2013-01-21 07:33:00,41.0,33.0,30.23,NNW,342,2.0,3.0,73,0.00,,,0.00,,2013-01-21 13:33:00,
2013-01-21 07:43:00,41.0,33.0,30.23,NNW,342,2.0,3.0,73,0.00,,,0.00,,2013-01-21 13:43:00,
2013-01-21 07:53:00,41.0,34.0,30.23,NNW,336,5.0,9.0,76,0.00,,,0.00,,2013-01-21 13:53:00,
2013-01-21 08:03:00,40.0,31.0,30.24,NNW,340,7.0,10.0,71,0.00,,,0.00,,2013-01-21 14:03:00,
2013-01-21 08:12:00,40.0,31.0,30.24,NNW,340,7.0,10.0,71,0.00,,,0.00,,2013-01-21 14:12:00,
2013-01-21 08:23:00,40.0,30.0,30.24,North,349,6.0,10.0,67,0.00,,,0.00,,2013-01-21 14:23:00,
2013-01-21 08:32:00,40.0,30.0,30.24,NNW,344,9.0,13.0,68,0.00,,,0.00,,2013-01-21 14:32:00,
2013-01-21 08:43:00,40.0,30.0,30.24,NNW,344,9.0,13.0,68,0.00,,,0.00,,2013-01-21 14:43:00,
2013-01-21 08:53:00,40.0,30.0,30.24,NNW,348,7.0,14.0,66,0.00,,,0.00,,2013-01-21 14:53:00,
2013-01-21 09:03:00,41.0,29.0,30.25,North,352,7.0,13.0,61,0.00,,,0.00,,2013-01-21 15:03:00,
2013-01-21 09:13:00,41.0,29.0,30.25,North,352,7.0,13.0,61,0.00,,,0.00,,2013-01-21 15:13:00,
2013-01-21 09:23:00,41.0,28.0,30.26,North,1,13.0,20.0,59,0.00,,,0.00,,2013-01-21 15:23:00,
2013-01-21 09:33:00,41.0,27.0,30.26,NNW,333,10.0,18.0,58,0.00,,,0.00,,2013-01-21 15:33:00,
2013-01-21 09:43:00,41.0,27.0,30.26,NNW,333,10.0,18.0,58,0.00,,,0.00,,2013-01-21 15:43:00,
2013-01-21 09:53:00,42.0,28.0,30.26,North,5,7.0,14.0,58,0.00,,,0.00,,2013-01-21 15:53:00,
2013-01-21 10:03:00,43.0,29.0,30.27,NNW,341,10.0,20.0,57,0.00,,,0.00,,2013-01-21 16:03:00,
2013-01-21 10:12:00,43.0,29.0,30.27,NNW,341,10.0,20.0,57,0.00,,,0.00,,2013-01-21 16:12:00,
2013-01-21 10:23:00,43.0,28.0,30.28,NNE,15,8.0,13.0,55,0.00,,,0.00,,2013-01-21 16:23:00,
2013-01-21 10:33:00,44.0,29.0,30.29,NNE,16,6.0,12.0,55,0.00,,,0.00,,2013-01-21 16:33:00,
2013-01-21 10:43:00,44.0,29.0,30.29,NNE,16,6.0,12.0,55,0.00,,,0.00,,2013-01-21 16:43:00,
2013-01-21 10:53:00,44.0,28.0,30.29,North,0,7.0,13.0,54,0.00,,,0.00,,2013-01-21 16:53:00,
2013-01-21 11:02:00,45.0,29.0,30.29,North,8,7.0,12.0,54,0.00,,,0.00,,2013-01-21 17:02:00,
2013-01-21 11:12:00,45.0,29.0,30.29,North,8,7.0,12.0,54,0.00,,,0.00,,2013-01-21 17:12:00,
2013-01-21 11:22:00,46.0,29.0,30.30,NNW,346,7.0,12.0,52,0.00,,,0.00,,2013-01-21 17:22:00,
2013-01-21 11:33:00,46.0,29.0,30.29,NNW,342,6.0,12.0,52,0.00,,,0.00,,2013-01-21 17:33:00,
2013-01-21 11:43:00,46.0,29.0,30.29,NNW,342,6.0,12.0,52,0.00,,,0.00,,2013-01-21 17:43:00,
2013-01-21 11:53:00,47.0,30.0,30.29,North,0,5.0,9.0,51,0.00,,,0.00,,2013-01-21 17:53:00,
2013-01-21 12:03:00,47.0,29.0,30.29,NW,323,8.0,12.0,49,0.00,,,0.00,,2013-01-21 18:03:00,
2013-01-21 12:12:00,47.0,29.0,30.29,NW,323,8.0,12.0,49,0.00,,,0.00,,2013-01-21 18:12:00,
2013-01-21 12:22:00,47.0,29.0,30.29,NNE,12,5.0,12.0,50,0.00,,,0.00,,2013-01-21 18:22:00,
2013-01-21 12:33:00,48.0,30.0,30.28,NNE,31,7.0,12.0,49,0.00,,,0.00,,2013-01-21 18:33:00,
2013-01-21 12:42:00,48.0,30.0,30.28,NNE,31,7.0,12.0,49,0.00,,,0.00,,2013-01-21 18:42:00,
2013-01-21 12:53:00,49.0,31.0,30.27,WNW,297,7.0,12.0,49,0.00,,,0.00,,2013-01-21 18:53:00,
2013-01-21 13:03:00,50.0,31.0,30.27,NNW,339,6.0,12.0,48,0.00,,,0.00,,2013-01-21 19:03:00,
2013-01-21 13:12:00,50.0,32.0,30.26,North,5,9.0,13.0,49,0.00,,,0.00,,2013-01-21 19:12:00,
2013-01-21 13:22:00,50.0,32.0,30.26,North,5,9.0,13.0,49,0.00,,,0.00,,2013-01-21 19:22:00,
2013-01-21 13:33:00,50.0,32.0,30.25,NW,314,8.0,13.0,49,0.00,,,0.00,,2013-01-21 19:33:00,
2013-01-21 13:42:00,50.0,32.0,30.25,NW,314,8.0,13.0,49,0.00,,,0.00,,2013-01-21 19:42:00,
2013-01-21 13:53:00,51.0,31.0,30.24,NW,313,9.0,13.0,46,0.00,,,0.00,,2013-01-21 19:53:00,
2013-01-21 14:03:00,52.0,33.0,30.24,North,5,5.0,12.0,48,0.00,,,0.00,,2013-01-21 20:03:00,
2013-01-21 14:12:00,52.0,33.0,30.24,North,5,5.0,12.0,48,0.00,,,0.00,,2013-01-21 20:12:00,
2013-01-21 14:23:00,52.0,33.0,30.24,NNE,22,6.0,10.0,49,0.00,,,0.00,,2013-01-21 20:23:00,
2013-01-21 14:33:00,53.0,33.0,30.24,NNW,346,5.0,9.0,47,0.00,,,0.00,,2013-01-21 20:33:00,
2013-01-21 14:43:00,53.0,33.0,30.24,NNW,346,5.0,9.0,47,0.00,,,0.00,,2013-01-21 20:43:00,
2013-01-21 14:53:00,54.0,34.0,30.24,NNE,21,5.0,10.0,46,0.00,,,0.00,,2013-01-21 20:53:00,
2013-01-21 15:03:00,54.0,34.0,30.23,NNW,336,7.0,12.0,46,0.00,,,0.00,,2013-01-21 21:03:00,
2013-01-21 15:12:00,54.0,34.0,30.23,NNW,336,7.0,12.0,46,0.00,,,0.00,,2013-01-21 21:12:00,
2013-01-21 15:22:00,54.0,34.0,30.23,NNW,345,6.0,14.0,47,0.00,,,0.00,,2013-01-21 21:22:00,
2013-01-21 15:33:00,55.0,35.0,30.23,North,11,4.0,9.0,46,0.00,,,0.00,,2013-01-21 21:33:00,
2013-01-21 15:43:00,55.0,35.0,30.23,North,11,4.0,9.0,46,0.00,,,0.00,,2013-01-21 21:43:00,
2013-01-21 15:53:00,55.0,35.0,30.22,NE,50,8.0,12.0,47,0.00,,,0.00,,2013-01-21 21:53:00,
2013-01-21 16:03:00,55.0,35.0,30.22,NE,38,6.0,10.0,47,0.00,,,0.00,,2013-01-21 22:03:00,
2013-01-21 16:12:00,55.0,35.0,30.22,NE,38,6.0,10.0,47,0.00,,,0.00,,2013-01-21 22:12:00,
2013-01-21 16:23:00,55.0,35.0,30.22,NNW,341,3.0,9.0,46,0.00,,,0.00,,2013-01-21 22:23:00,
2013-01-21 16:33:00,55.0,35.0,30.22,North,5,4.0,7.0,46,0.00,,,0.00,,2013-01-21 22:33:00,
2013-01-21 16:42:00,55.0,35.0,30.22,North,5,4.0,7.0,46,0.00,,,0.00,,2013-01-21 22:42:00,
2013-01-21 16:53:00,55.0,35.0,30.22,North,5,3.0,6.0,46,0.00,,,0.00,,2013-01-21 22:53:00,
2013-01-21 17:03:00,55.0,35.0,30.22,NNE,26,4.0,7.0,46,0.00,,,0.00,,2013-01-21 23:03:00,
2013-01-21 17:12:00,55.0,35.0,30.22,NNE,26,4.0,7.0,46,0.00,,,0.00,,2013-01-21 23:12:00,
2013-01-21 17:22:00,55.0,35.0,30.22,NNE,28,3.0,7.0,47,0.00,,,0.00,,2013-01-21 23:22:00,
2013-01-21 17:33:00,55.0,35.0,30.22,NNE,23,2.0,6.0,47,0.00,,,0.00,,2013-01-21 23:33:00,
2013-01-21 17:42:00,55.0,35.0,30.22,NNE,23,2.0,6.0,47,0.00,,,0.00,,2013-01-21 23:42:00,
2013-01-21 17:53:00,54.0,35.0,30.22,NNE,16,3.0,7.0,48,0.00,,,0.00,,2013-01-21 23:53:00,
2013-01-21 18:02:00,54.0,35.0,30.21,NNE,16,1.0,2.0,49,0.00,,,0.00,,2013-01-22 00:02:00,
2013-01-21 18:12:00,54.0,35.0,30.21,NNE,16,1.0,2.0,49,0.00,,,0.00,,2013-01-22 00:12:00,
2013-01-21 18:22:00,53.0,35.0,30.22,NNE,16,1.0,2.0,50,0.00,,,0.00,,2013-01-22 00:22:00,
2013-01-21 18:32:00,52.0,34.0,30.22,NNE,16,0.0,2.0,51,0.00,,,0.00,,2013-01-22 00:32:00,
2013-01-21 18:42:00,52.0,34.0,30.22,NNE,16,0.0,2.0,51,0.00,,,0.00,,2013-01-22 00:42:00,
2013-01-21 18:53:00,52.0,35.0,30.22,NNE,16,0.0,0.0,53,0.00,,,0.00,,2013-01-22 00:53:00,
2013-01-21 19:02:00,51.0,35.0,30.22,NNE,16,0.0,1.0,54,0.00,,,0.00,,2013-01-22 01:02:00,
2013-01-21 19:12:00,51.0,35.0,30.22,NNE,16,0.0,1.0,54,0.00,,,0.00,,2013-01-22 01:12:00,
2013-01-21 19:23:00,50.0,35.0,30.22,NNE,16,0.0,0.0,56,0.00,,,0.00,,2013-01-22 01:23:00,
2013-01-21 19:32:00,49.0,35.0,30.22,NNE,16,0.0,0.0,58,0.00,,,0.00,,2013-01-22 01:32:00,
2013-01-21 19:42:00,49.0,35.0,30.22,NNE,16,0.0,0.0,58,0.00,,,0.00,,2013-01-22 01:42:00,
2013-01-21 19:52:00,48.0,34.0,30.23,NNE,16,0.0,0.0,59,0.00,,,0.00,,2013-01-22 01:52:00,
2013-01-21 20:02:00,47.0,34.0,30.23,NNE,16,0.0,0.0,61,0.00,,,0.00,,2013-01-22 02:02:00,
2013-01-21 20:12:00,47.0,34.0,30.23,NNE,16,0.0,0.0,61,0.00,,,0.00,,2013-01-22 02:12:00,
2013-01-21 20:22:00,46.0,34.0,30.23,NNE,16,0.0,0.0,63,0.00,,,0.00,,2013-01-22 02:22:00,
2013-01-21 20:32:00,46.0,34.0,30.24,NNE,16,0.0,0.0,63,0.00,,,0.00,,2013-01-22 02:32:00,
2013-01-21 20:42:00,46.0,34.0,30.24,NNE,16,0.0,0.0,63,0.00,,,0.00,,2013-01-22 02:42:00,
2013-01-21 20:53:00,45.0,34.0,30.24,NNE,16,0.0,0.0,65,0.00,,,0.00,,2013-01-22 02:53:00,
2013-01-21 21:02:00,45.0,34.0,30.24,NNE,16,0.0,0.0,66,0.00,,,0.00,,2013-01-22 03:02:00,
2013-01-21 21:12:00,45.0,34.0,30.24,NNE,16,0.0,0.0,66,0.00,,,0.00,,2013-01-22 03:12:00,
2013-01-21 21:22:00,45.0,34.0,30.24,NNE,16,0.0,1.0,64,0.00,,,0.00,,2013-01-22 03:22:00,
2013-01-21 21:32:00,45.0,33.0,30.24,NNE,16,1.0,2.0,62,0.00,,,0.00,,2013-01-22 03:32:00,
2013-01-21 21:42:00,45.0,33.0,30.24,NNE,16,1.0,2.0,62,0.00,,,0.00,,2013-01-22 03:42:00,
2013-01-21 21:53:00,45.0,33.0,30.24,NNE,16,0.0,0.0,63,0.00,,,0.00,,2013-01-22 03:53:00,
2013-01-21 22:02:00,45.0,34.0,30.24,NNE,16,1.0,2.0,64,0.00,,,0.00,,2013-01-22 04:02:00,
2013-01-21 22:12:00,45.0,34.0,30.24,NNE,16,1.0,2.0,64,0.00,,,0.00,,2013-01-22 04:12:00,
2013-01-21 22:22:00,44.0,32.0,30.25,NNE,16,1.0,2.0,62,0.00,,,0.00,,2013-01-22 04:22:00,
2013-01-21 22:32:00,44.0,31.0,30.25,NNE,16,2.0,5.0,60,0.00,,,0.00,,2013-01-22 04:32:00,
2013-01-21 22:42:00,44.0,31.0,30.25,NNE,16,2.0,5.0,60,0.00,,,0.00,,2013-01-22 04:42:00,
2013-01-21 22:52:00,45.0,31.0,30.25,NNE,16,2.0,3.0,58,0.00,,,0.00,,2013-01-22 04:52:00,
2013-01-21 23:03:00,45.0,31.0,30.25,NNE,16,1.0,3.0,58,0.00,,,0.00,,2013-01-22 05:03:00,
2013-01-21 23:12:00,45.0,31.0,30.25,NNE,16,1.0,3.0,58,0.00,,,0.00,,2013-01-22 05:12:00,
2013-01-21 23:22:00,44.0,31.0,30.26,NNE,16,0.0,0.0,59,0.00,,,0.00,,2013-01-22 05:22:00,
2013-01-21 23:32:00,44.0,31.0,30.26,NNE,16,0.0,0.0,60,0.00,,,0.00,,2013-01-22 05:32:00,
2013-01-21 23:42:00,44.0,31.0,30.26,NNE,16,0.0,0.0,60,0.00,,,0.00,,2013-01-22 05:42:00,
2013-01-21 23:53:00,43.0,30.0,30.25,NNE,16,0.0,0.0,61,0.00,,,0.00,,2013-01-22 05:53:00,